Hardwood, Louisiana
Current Conditions -  °F | °C
As of 7:55 PM on Monday 24 Nov 2014 (Local Time) from KHZR Reporting Station
Clear Clear  
Wind Chill: 49°   Ceiling: Unl
Heat Index: 49°   Visibility: 10mi
Dew Point: 40°   Wind: 0mph
Humidity: 73%   Direction: NA
Pressure: 30.05"   Gusts: NA
Location:  30.8804°N, 91.4243°W
Report Text: KHZR 250155Z AUTO 00000KT 10SM CLR 09/05 A3005 RMK AO2 T00930047
Loading
Personal Weather Stations






























Interactive Weather Map New forecast layout! Learn more

10-Day Weather Forecast

Advertisements
Track Severe Weather on mobile